Time;durP1;ratioP1;P1;durP2;ratioP2;P2;SDS_P1;SDS_P2;PMS_P1;PMS_P2;Temp;Humidity;BMP_temperature;BMP_pressure;BME280_temperature;BME280_humidity;BME280_pressure;Samples;Min_cycle;Max_cycle;Signal;HPM_P1;HPM_P2
2022/06/05 00:01:42;;;;;;;12.32;8.68;;;12.20;99.90;;;;;;5073092;28;20487;-50
2022/06/05 00:04:08;;;;;;;12.98;9.95;;;12.20;99.90;;;;;;5071907;28;20339;-54
2022/06/05 00:06:36;;;;;;;11.88;9.38;;;12.20;99.90;;;;;;5072550;28;20147;-53
2022/06/05 00:09:20;;;;;;;14.35;9.68;;;12.20;99.90;;;;;;5072223;28;20041;-51
2022/06/05 00:12:02;;;;;;;15.00;9.43;;;12.10;99.90;;;;;;5072908;28;20058;-53
2022/06/05 00:14:28;;;;;;;14.10;9.30;;;12.10;99.90;;;;;;5070307;28;20109;-55
2022/06/05 00:16:53;;;;;;;11.27;9.48;;;12.10;99.90;;;;;;5072264;28;20048;-54
2022/06/05 00:19:19;;;;;;;14.82;9.88;;;12.10;99.90;;;;;;5069895;28;20478;-55
2022/06/05 00:21:45;;;;;;;11.15;9.50;;;12.10;99.90;;;;;;5072614;28;20495;-54
2022/06/05 00:24:10;;;;;;;11.77;9.77;;;12.10;99.90;;;;;;5072902;28;20042;-54
2022/06/05 00:26:54;;;;;;;11.23;9.15;;;12.10;99.90;;;;;;5068328;28;20102;-51
2022/06/05 00:29:25;;;;;;;12.43;9.63;;;12.10;99.90;;;;;;5070225;28;20053;-54
2022/06/05 00:32:11;;;;;;;14.45;11.02;;;12.00;99.90;;;;;;5069027;28;20045;-52
2022/06/05 00:34:37;;;;;;;14.07;10.07;;;12.00;99.90;;;;;;5071170;28;20044;-51
2022/06/05 00:37:21;;;;;;;12.43;9.85;;;12.00;99.90;;;;;;5071989;28;20044;-51
2022/06/05 00:40:20;;;;;;;18.85;10.65;;;12.00;99.90;;;;;;5067466;28;20511;-52
2022/06/05 00:42:48;;;;;;;15.52;11.10;;;12.00;99.90;;;;;;5062753;28;20044;-52
2022/06/05 00:45:14;;;;;;;;;;;11.90;99.90;;;;;;5071374;28;20051;-48
2022/06/05 00:47:42;;;;;;;14.68;11.75;;;12.00;99.90;;;;;;5071407;28;20286;-54
2022/06/05 00:50:42;;;;;;;14.57;11.48;;;12.00;99.90;;;;;;5068705;28;20064;-49
2022/06/05 00:53:09;;;;;;;14.57;11.02;;;12.00;99.90;;;;;;5025094;28;20075;-49
2022/06/05 00:55:49;;;;;;;12.95;10.57;;;12.00;99.90;;;;;;5069010;28;20096;-49
2022/06/05 00:58:16;;;;;;;15.80;10.98;;;12.00;99.90;;;;;;5069026;28;20037;-51
2022/06/05 01:00:47;;;;;;;15.13;11.93;;;12.00;99.90;;;;;;5070022;28;20490;-50
2022/06/05 01:03:15;;;;;;;13.88;11.18;;;12.00;99.90;;;;;;5065850;28;20511;-48
2022/06/05 01:05:41;;;;;;;15.43;10.85;;;12.00;99.90;;;;;;5071604;28;20486;-51
2022/06/05 01:08:07;;;;;;;12.48;11.20;;;11.90;99.90;;;;;;5070166;28;20124;-48
2022/06/05 01:10:56;;;;;;;12.60;11.30;;;11.90;99.90;;;;;;5071032;28;20510;-50
2022/06/05 01:13:53;;;;;;;15.40;12.23;;;11.90;99.90;;;;;;5069825;28;20085;-50
2022/06/05 01:16:30;;;;;;;14.75;11.57;;;12.00;99.90;;;;;;5072855;28;20040;-49
2022/06/05 01:19:11;;;;;;;13.73;12.27;;;12.00;99.90;;;;;;5066098;28;20123;-49
2022/06/05 01:22:05;;;;;;;16.23;12.23;;;12.00;99.90;;;;;;5068140;28;20044;-50
2022/06/05 01:25:08;;;;;;;18.30;12.57;;;12.00;99.90;;;;;;5071716;28;20087;-49
2022/06/05 01:27:38;;;;;;;15.63;11.95;;;11.80;99.90;;;;;;5068670;28;20040;-48
2022/06/05 01:30:12;;;;;;;15.25;12.25;;;11.80;99.90;;;;;;5070188;28;20044;-50
2022/06/05 01:32:51;;;;;;;16.52;12.55;;;11.80;99.90;;;;;;5071387;28;20410;-50
2022/06/05 01:35:27;;;;;;;14.65;12.65;;;11.80;99.90;;;;;;5069185;28;20067;-50
2022/06/05 01:38:06;;;;;;;17.73;13.30;;;11.70;99.90;;;;;;5068906;28;20048;-49
2022/06/05 01:40:45;;;;;;;16.13;12.60;;;11.70;99.90;;;;;;5071371;28;20044;-50
2022/06/05 01:43:27;;;;;;;14.55;12.32;;;11.80;99.90;;;;;;5068960;28;20044;-51
2022/06/05 01:46:10;;;;;;;18.73;12.73;;;11.70;99.90;;;;;;5067413;28;20487;-52
2022/06/05 01:48:44;;;;;;;17.65;12.93;;;11.70;99.90;;;;;;5070381;28;20049;-50
2022/06/05 01:51:19;;;;;;;17.42;13.23;;;11.70;99.90;;;;;;5060934;28;20176;-50
2022/06/05 01:53:47;;;;;;;17.00;13.55;;;11.70;99.90;;;;;;5065283;28;20057;-50
2022/06/05 01:56:19;;;;;;;17.70;13.23;;;11.80;99.90;;;;;;5070737;28;20052;-53
2022/06/05 01:58:49;;;;;;;18.67;14.15;;;11.70;99.90;;;;;;5066053;28;20094;-52
2022/06/05 02:01:23;;;;;;;16.67;13.70;;;11.70;99.90;;;;;;5066425;28;20073;-52
2022/06/05 02:03:59;;;;;;;17.33;13.23;;;11.80;99.90;;;;;;5069892;28;20052;-51
2022/06/05 02:06:39;;;;;;;15.77;13.75;;;11.70;99.90;;;;;;5068675;28;20394;-50
2022/06/05 02:09:16;;;;;;;17.58;13.25;;;11.80;99.90;;;;;;5067461;28;20040;-49
2022/06/05 02:11:42;;;;;;;20.65;13.43;;;11.80;99.90;;;;;;5069619;28;20051;-48
2022/06/05 02:14:10;;;;;;;14.48;12.32;;;11.70;99.90;;;;;;5070086;28;20033;-48
2022/06/05 02:16:39;;;;;;;18.08;13.93;;;11.80;99.90;;;;;;5066574;28;20042;-50
2022/06/05 02:19:12;;;;;;;19.25;14.48;;;11.80;99.90;;;;;;5068320;28;20048;-50
2022/06/05 02:21:39;;;;;;;19.17;14.85;;;11.70;99.90;;;;;;5068704;28;20035;-48
2022/06/05 02:24:07;;;;;;;16.33;14.03;;;11.70;99.90;;;;;;5069835;28;20194;-50
2022/06/05 02:26:33;;;;;;;19.10;15.13;;;11.60;99.90;;;;;;5070673;28;20052;-50
2022/06/05 02:29:02;;;;;;;17.10;14.95;;;11.60;99.90;;;;;;5070097;28;20047;-49
2022/06/05 02:31:58;;;;;;;18.15;14.38;;;11.60;99.90;;;;;;5070246;28;20040;-50
2022/06/05 02:34:45;;;;;;;16.70;14.90;;;11.60;99.90;;;;;;5070842;28;20076;-50
2022/06/05 02:37:32;;;;;;;19.90;14.90;;;11.60;99.90;;;;;;5070668;28;20036;-51
2022/06/05 02:40:20;;;;;;;16.98;14.90;;;11.70;99.90;;;;;;5069769;28;20044;-52
2022/06/05 02:43:21;;;;;;;20.38;13.52;;;11.60;99.90;;;;;;5069287;28;20368;-49
2022/06/05 02:46:05;;;;;;;17.60;14.18;;;11.70;99.90;;;;;;5068225;28;20535;-50
2022/06/05 02:48:41;;;;;;;21.48;14.52;;;11.70;99.90;;;;;;5070332;28;20513;-49
2022/06/05 02:51:13;;;;;;;20.23;15.68;;;11.70;99.90;;;;;;5069980;28;20049;-53
2022/06/05 02:53:56;;;;;;;16.92;14.70;;;11.70;99.90;;;;;;5066697;28;20078;-52
2022/06/05 02:56:26;;;;;;;20.20;14.68;;;11.70;99.90;;;;;;5066957;28;20149;-52
2022/06/05 02:58:54;;;;;;;19.70;13.65;;;11.70;99.90;;;;;;5053096;28;20053;-51
2022/06/05 03:04:07;;;;;;;20.55;15.70;;;12.00;99.90;;;;;;5069467;28;20056;-49
2022/06/05 03:06:33;;;;;;;20.75;15.50;;;11.70;99.90;;;;;;5067406;28;20040;-50
2022/06/05 03:08:59;;;;;;;21.10;15.45;;;11.80;99.90;;;;;;5069540;28;20049;-49
2022/06/05 03:11:25;;;;;;;18.13;14.57;;;11.70;99.90;;;;;;5068198;28;20037;-49
2022/06/05 03:13:51;;;;;;;17.67;15.02;;;11.80;99.90;;;;;;5069362;28;20048;-51
2022/06/05 03:16:17;;;;;;;18.80;15.27;;;11.80;99.90;;;;;;5066100;28;20072;-51
2022/06/05 03:18:42;;;;;;;21.50;16.50;;;11.80;99.90;;;;;;5069826;28;20040;-55
2022/06/05 03:21:08;;;;;;;19.38;14.80;;;11.80;99.90;;;;;;5069798;28;20032;-51
2022/06/05 03:23:34;;;;;;;18.05;15.80;;;11.80;99.90;;;;;;5067107;28;20202;-52
2022/06/05 03:26:00;;;;;;;18.63;15.25;;;11.90;99.90;;;;;;5067235;28;20711;-52
2022/06/05 03:28:25;;;;;;;19.05;15.35;;;11.90;99.90;;;;;;5070219;28;20094;-52
2022/06/05 03:30:51;;;;;;;17.67;14.73;;;11.90;99.90;;;;;;5070892;28;20044;-52
2022/06/05 03:33:17;;;;;;;19.63;15.07;;;11.90;99.90;;;;;;5074744;28;20170;-52
2022/06/05 03:35:44;;;;;;;17.83;15.93;;;11.90;99.90;;;;;;5072323;28;20486;-52
2022/06/05 03:38:11;;;;;;;18.17;14.75;;;11.90;99.90;;;;;;5069625;28;20044;-51
2022/06/05 03:40:43;;;;;;;17.33;14.55;;;11.90;99.90;;;;;;5073005;28;20052;-49
2022/06/05 03:43:09;;;;;;;16.98;14.77;;;12.00;99.90;;;;;;5070658;28;20090;-52
2022/06/05 03:45:38;;;;;;;16.58;14.85;;;12.00;99.90;;;;;;5071897;28;20036;-51
2022/06/05 03:48:04;;;;;;;16.75;14.52;;;12.00;99.90;;;;;;5072468;28;20068;-53
2022/06/05 03:50:31;;;;;;;18.42;14.68;;;12.00;99.90;;;;;;5086275;28;20044;-53
2022/06/05 03:52:57;;;;;;;19.38;14.98;;;12.10;99.90;;;;;;5071677;28;20184;-52
2022/06/05 03:55:24;;;;;;;17.95;14.00;;;12.10;99.90;;;;;;5072843;28;20060;-53
2022/06/05 03:57:50;;;;;;;20.05;14.98;;;12.10;99.90;;;;;;5073172;28;20356;-52
2022/06/05 04:00:17;;;;;;;16.10;14.05;;;12.20;99.90;;;;;;5069226;28;20537;-50
2022/06/05 04:02:44;;;;;;;19.42;15.02;;;12.20;99.90;;;;;;5071907;28;20075;-51
2022/06/05 04:05:13;;;;;;;21.23;15.38;;;12.30;99.90;;;;;;5074376;28;20359;-55
2022/06/05 04:07:39;;;;;;;18.80;15.07;;;12.30;99.90;;;;;;5071569;28;20039;-54
2022/06/05 04:10:06;;;;;;;17.63;14.77;;;12.30;99.90;;;;;;5071268;28;20047;-52
2022/06/05 04:12:32;;;;;;;16.10;14.32;;;12.40;99.90;;;;;;5071131;28;20032;-54
2022/06/05 04:15:00;;;;;;;17.42;14.27;;;12.40;99.90;;;;;;5073351;28;20500;-55
2022/06/05 04:17:25;;;;;;;15.73;13.93;;;12.50;99.90;;;;;;5070809;28;20050;-55
2022/06/05 04:19:52;;;;;;;16.90;14.38;;;12.50;99.90;;;;;;5072124;28;20036;-52
2022/06/05 04:22:18;;;;;;;15.57;13.97;;;12.60;99.90;;;;;;5072806;28;20060;-54
2022/06/05 04:24:44;;;;;;;15.60;14.00;;;12.70;99.90;;;;;;5071605;28;20048;-49
2022/06/05 04:27:09;;;;;;;17.02;13.82;;;12.80;99.90;;;;;;5072335;28;20407;-54
2022/06/05 04:29:35;;;;;;;15.90;14.13;;;12.80;99.90;;;;;;5072275;28;20044;-51
2022/06/05 04:32:01;;;;;;;16.05;13.60;;;13.00;99.90;;;;;;5071620;28;20479;-51
2022/06/05 04:34:26;;;;;;;15.90;13.52;;;13.20;99.90;;;;;;5072931;28;20040;-54
2022/06/05 04:36:52;;;;;;;14.90;11.82;;;13.90;99.90;;;;;;5071405;28;20372;-53
2022/06/05 04:39:17;;;;;;;17.70;14.30;;;14.40;99.90;;;;;;5070532;28;20478;-53
2022/06/05 04:41:44;;;;;;;17.17;14.00;;;14.40;99.90;;;;;;5070135;28;20036;-54
2022/06/05 04:44:13;;;;;;;15.13;13.52;;;14.50;99.90;;;;;;5072508;28;20037;-52
2022/06/05 04:46:39;;;;;;;15.15;13.57;;;14.60;99.90;;;;;;5069003;28;20040;-55
2022/06/05 04:49:07;;;;;;;16.92;14.50;;;14.50;99.90;;;;;;5071327;28;20049;-53
2022/06/05 04:51:34;;;;;;;13.20;11.52;;;14.60;99.90;;;;;;5069319;28;20044;-54
2022/06/05 04:54:01;;;;;;;14.97;13.53;;;14.70;99.90;;;;;;5071180;28;20059;-53
2022/06/05 04:56:28;;;;;;;14.37;12.97;;;15.30;99.90;;;;;;5069189;28;20056;-53
2022/06/05 04:58:57;;;;;;;15.27;12.55;;;;;;;;;;5071357;28;20037;-52
2022/06/05 05:01:27;;;;;;;14.55;13.05;;;;;;;;;;5065127;28;20162;-56
2022/06/05 05:03:57;;;;;;;13.55;12.13;;;16.30;99.90;;;;;;5071028;28;20524;-55
2022/06/05 05:06:24;;;;;;;13.48;12.05;;;16.50;99.90;;;;;;5069338;28;20044;-54
2022/06/05 05:08:50;;;;;;;13.60;12.18;;;16.90;99.90;;;;;;5071546;28;20051;-52
2022/06/05 05:11:17;;;;;;;14.60;11.57;;;17.40;99.90;;;;;;5067260;28;20105;-50
2022/06/05 05:13:42;;;;;;;12.57;11.23;;;17.70;99.90;;;;;;5070040;28;20131;-51
2022/06/05 05:16:08;;;;;;;13.80;12.40;;;17.60;99.90;;;;;;5068564;28;20123;-55
2022/06/05 05:18:34;;;;;;;13.05;11.73;;;17.80;99.90;;;;;;5069993;28;20095;-55
2022/06/05 05:21:11;;;;;;;12.60;11.40;;;17.90;99.90;;;;;;5070405;28;20115;-53
2022/06/05 05:23:37;;;;;;;12.07;10.85;;;17.90;99.90;;;;;;5069747;28;20090;-54
2022/06/05 05:26:24;;;;;;;13.73;11.57;;;17.90;99.90;;;;;;5071613;28;20036;-51
2022/06/05 05:28:51;;;;;;;12.63;11.32;;;17.50;99.90;;;;;;5070074;28;20040;-56
2022/06/05 05:31:20;;;;;;;12.35;11.05;;;17.40;99.90;;;;;;5066200;28;20051;-52
2022/06/05 05:33:47;;;;;;;14.55;11.07;;;17.20;99.90;;;;;;5070047;28;20059;-54
2022/06/05 05:36:13;;;;;;;15.70;11.73;;;16.60;99.90;;;;;;5072104;28;20140;-54
2022/06/05 05:42:04;;;;;;;12.80;11.50;;;16.40;99.90;;;;;;5071378;28;20545;-55
2022/06/05 05:42:09;;;;;;;12.27;11.07;;;16.40;99.90;;;;;;5064756;28;20155;-54
2022/06/05 05:44:10;;;;;;;13.75;10.95;;;16.20;99.90;;;;;;5054586;28;20137;-53
2022/06/05 05:46:35;;;;;;;12.30;11.18;;;16.10;99.90;;;;;;5063021;28;20072;-51
2022/06/05 05:49:01;;;;;;;14.82;11.82;;;16.00;99.90;;;;;;5068039;28;20036;-56
2022/06/05 05:51:27;;;;;;;13.27;11.85;;;16.10;99.90;;;;;;5067735;28;20422;-56
2022/06/05 05:53:52;;;;;;;13.20;11.90;;;16.00;99.90;;;;;;5061295;28;20157;-56
2022/06/05 05:56:18;;;;;;;12.98;11.68;;;16.00;99.90;;;;;;5066999;28;20091;-53
2022/06/05 05:58:43;;;;;;;13.73;12.23;;;16.00;99.90;;;;;;5065129;28;20411;-55
2022/06/05 06:01:12;;;;;;;13.68;12.40;;;16.00;99.90;;;;;;5059611;28;20123;-54
2022/06/05 06:03:38;;;;;;;12.60;11.45;;;16.00;99.90;;;;;;5059615;28;20662;-55
2022/06/05 06:06:03;;;;;;;13.13;11.73;;;16.00;99.90;;;;;;5062512;28;20041;-55
2022/06/05 06:08:30;;;;;;;12.13;11.02;;;16.10;99.90;;;;;;5065031;28;20681;-52
2022/06/05 06:10:56;;;;;;;12.35;11.15;;;16.20;99.90;;;;;;5064553;28;20471;-54
2022/06/05 06:13:22;;;;;;;12.32;10.93;;;16.20;99.90;;;;;;5063956;28;20058;-55
2022/06/05 06:15:49;;;;;;;12.07;10.88;;;16.30;99.90;;;;;;5066416;28;20048;-55
2022/06/05 06:18:15;;;;;;;12.55;11.27;;;16.40;99.90;;;;;;5067384;28;20431;-55
2022/06/05 06:20:41;;;;;;;12.05;10.85;;;16.70;99.90;;;;;;5060507;28;20037;-54
2022/06/05 06:23:07;;;;;;;11.77;10.48;;;16.90;99.90;;;;;;5064378;28;20045;-55
2022/06/05 06:25:32;;;;;;;12.55;10.38;;;17.20;99.90;;;;;;5061934;28;20065;-56
2022/06/05 06:27:58;;;;;;;11.20;10.18;;;17.50;99.90;;;;;;5059707;28;20395;-56
2022/06/05 06:30:23;;;;;;;12.20;10.63;;;17.70;99.90;;;;;;5060744;28;20036;-55
2022/06/05 06:32:49;;;;;;;11.18;10.07;;;18.20;99.90;;;;;;5065103;28;20055;-56
2022/06/05 06:35:14;;;;;;;12.10;9.82;;;18.40;99.90;;;;;;5071409;28;20435;-56
2022/06/05 06:37:40;;;;;;;10.15;9.05;;;18.60;99.90;;;;;;5071157;28;20041;-55
2022/06/05 06:40:06;;;;;;;9.98;8.98;;;18.80;99.90;;;;;;5071449;28;20055;-56
2022/06/05 06:42:32;;;;;;;10.63;9.63;;;19.20;99.90;;;;;;5070167;28;20047;-55
2022/06/05 06:44:58;;;;;;;10.57;9.10;;;19.50;99.90;;;;;;5070667;28;20036;-56
2022/06/05 06:47:23;;;;;;;10.07;9.07;;;19.50;99.90;;;;;;5070028;28;20040;-56
2022/06/05 06:49:49;;;;;;;9.52;8.65;;;19.40;99.90;;;;;;5070970;28;20418;-53
2022/06/05 06:52:15;;;;;;;9.77;8.88;;;19.60;99.90;;;;;;5069947;28;20082;-55
2022/06/05 06:54:41;;;;;;;9.75;8.85;;;19.60;99.90;;;;;;5071234;28;20100;-55
2022/06/05 06:57:08;;;;;;;9.43;8.60;;;19.80;99.90;;;;;;5068925;28;20041;-55
2022/06/05 06:59:33;;;;;;;8.82;8.02;;;19.70;99.90;;;;;;5060762;28;20040;-55
2022/06/05 07:01:59;;;;;;;9.25;8.35;;;20.00;99.90;;;;;;5068887;28;20046;-56
2022/06/05 07:04:24;;;;;;;9.95;8.55;;;20.30;99.90;;;;;;5070667;28;20121;-56
2022/06/05 07:06:50;;;;;;;9.30;8.43;;;20.40;99.90;;;;;;5070524;28;20072;-54
2022/06/05 07:09:16;;;;;;;9.23;8.32;;;20.20;99.90;;;;;;5070929;28;20041;-56
2022/06/05 07:11:42;;;;;;;11.10;8.10;;;20.20;99.90;;;;;;5070667;28;20144;-54
2022/06/05 07:14:09;;;;;;;8.18;7.38;;;20.10;99.90;;;;;;5070607;28;20048;-56
2022/06/05 07:16:35;;;;;;;10.07;7.30;;;20.00;99.90;;;;;;5068514;28;20123;-55
2022/06/05 07:19:00;;;;;;;7.97;7.15;;;19.90;99.90;;;;;;5070681;28;20047;-54
2022/06/05 07:21:26;;;;;;;8.25;7.53;;;20.10;99.90;;;;;;5068709;28;20037;-56
2022/06/05 07:23:56;;;;;;;8.63;7.78;;;20.30;99.90;;;;;;5068173;28;20039;-52
2022/06/05 07:26:23;;;;;;;10.82;7.40;;;20.40;99.90;;;;;;5070773;28;20140;-55
2022/06/05 07:28:49;;;;;;;7.70;6.95;;;20.70;99.90;;;;;;5070495;28;20040;-55
2022/06/05 07:31:17;;;;;;;7.38;6.68;;;20.50;99.90;;;;;;5070577;28;20039;-56
2022/06/05 07:33:43;;;;;;;7.95;7.10;;;20.60;99.90;;;;;;5069909;28;20068;-54
2022/06/05 07:36:12;;;;;;;7.90;7.10;;;20.80;99.90;;;;;;5069465;28;20033;-55
2022/06/05 07:38:38;;;;;;;7.63;6.72;;;20.50;99.90;;;;;;5067702;28;20037;-54
2022/06/05 07:41:06;;;;;;;7.72;7.03;;;20.60;99.90;;;;;;5070468;28;20036;-56
2022/06/05 07:43:32;;;;;;;;;;;20.60;99.90;;;;;;5071247;28;20164;-51
2022/06/05 07:46:02;;;;;;;8.13;6.70;;;20.30;99.90;;;;;;5070905;28;20391;-55
2022/06/05 07:48:27;;;;;;;7.00;6.30;;;20.40;99.90;;;;;;5070573;28;20423;-55
2022/06/05 07:56:36;;;;;;;6.75;5.82;;;20.70;99.90;;;;;;5070645;28;20127;-54
2022/06/05 07:59:02;;;;;;;11.68;6.93;;;20.90;99.90;;;;;;5070831;28;20075;-56
2022/06/05 08:01:28;;;;;;;7.38;6.65;;;20.80;99.90;;;;;;5071015;28;20032;-53
2022/06/05 08:03:54;;;;;;;7.47;6.60;;;20.80;99.90;;;;;;5070100;28;20033;-55
2022/06/05 08:06:20;;;;;;;6.55;5.95;;;20.90;99.90;;;;;;5069846;28;20047;-55
2022/06/05 08:08:45;;;;;;;6.30;5.80;;;21.00;99.90;;;;;;5068740;28;20209;-55
2022/06/05 08:11:11;;;;;;;7.97;6.18;;;21.00;99.90;;;;;;5070746;28;20045;-55
2022/06/05 08:13:37;;;;;;;7.07;6.47;;;21.10;99.90;;;;;;5070338;28;20132;-56
2022/06/05 08:16:03;;;;;;;8.43;6.32;;;21.10;99.90;;;;;;5073828;28;20478;-54
2022/06/05 08:18:28;;;;;;;7.53;6.78;;;21.00;99.90;;;;;;5074174;28;20384;-54
2022/06/05 08:20:54;;;;;;;7.53;6.35;;;20.80;99.90;;;;;;5074079;28;20114;-56
2022/06/05 08:23:20;;;;;;;7.30;6.60;;;20.90;99.90;;;;;;5072437;28;20435;-54
2022/06/05 08:25:45;;;;;;;7.68;6.97;;;21.00;99.90;;;;;;5073986;28;20439;-54
2022/06/05 08:28:11;;;;;;;12.40;6.90;;;21.00;99.90;;;;;;5073947;28;20119;-56
2022/06/05 08:30:38;;;;;;;6.75;6.15;;;21.20;99.90;;;;;;5073892;28;20083;-56
2022/06/05 08:33:04;;;;;;;7.30;6.60;;;21.20;99.90;;;;;;5073746;28;20041;-56
2022/06/05 08:35:30;;;;;;;7.50;6.70;;;21.40;99.90;;;;;;5073728;28;20080;-53
2022/06/05 08:44:14;;;;;;;8.02;6.28;;;22.00;99.90;;;;;;5073020;28;20051;-55
2022/06/05 08:47:01;;;;;;;;;;;22.10;99.90;;;;;;5073188;28;20379;-56
2022/06/05 08:49:57;;;;;;;6.82;6.22;;;21.90;99.90;;;;;;5072436;28;20346;-55
2022/06/05 08:52:50;;;;;;;6.95;6.05;;;22.00;99.90;;;;;;5072104;28;20201;-56
2022/06/05 08:55:30;;;;;;;7.00;6.38;;;21.90;99.90;;;;;;5072425;28;20057;-57
2022/06/05 08:58:05;;;;;;;6.85;6.15;;;21.70;99.90;;;;;;5073365;28;20048;-56
2022/06/05 09:00:34;;;;;;;7.00;6.18;;;21.70;99.90;;;;;;5073390;28;20127;-57
2022/06/05 09:03:19;;;;;;;7.45;5.68;;;21.80;99.90;;;;;;5073657;28;20098;-56
2022/06/05 09:05:48;;;;;;;7.75;6.65;;;21.60;99.90;;;;;;5072554;28;20043;-55
2022/06/05 09:08:17;;;;;;;7.65;6.28;;;21.80;99.90;;;;;;5069736;28;20450;-56
2022/06/05 09:10:47;;;;;;;7.22;6.32;;;22.00;99.90;;;;;;5071793;28;20456;-56
2022/06/05 09:13:17;;;;;;;7.07;6.47;;;22.10;99.90;;;;;;5072916;28;20072;-57
2022/06/05 09:15:51;;;;;;;7.07;6.10;;;22.20;99.90;;;;;;5072476;28;20315;-58
2022/06/05 09:18:21;;;;;;;6.82;6.22;;;22.40;99.90;;;;;;5052449;28;20045;-55
2022/06/05 09:20:55;;;;;;;6.93;5.82;;;22.50;99.90;;;;;;5053046;28;20048;-57
2022/06/05 09:23:50;;;;;;;6.47;5.88;;;22.90;99.90;;;;;;5068416;28;20043;-56
2022/06/05 09:26:37;;;;;;;8.85;5.90;;;22.80;99.90;;;;;;5062926;28;20135;-56
2022/06/05 09:29:21;;;;;;;6.60;5.90;;;23.10;99.90;;;;;;5072354;28;20402;-56
2022/06/05 09:32:21;;;;;;;5.97;5.47;;;23.00;99.90;;;;;;5072334;28;20427;-56
2022/06/05 09:34:53;;;;;;;5.97;5.47;;;23.00;99.90;;;;;;5069166;28;20131;-57
2022/06/05 09:37:30;;;;;;;6.15;5.65;;;23.30;99.90;;;;;;5070095;28;20045;-58
2022/06/05 09:40:01;;;;;;;6.68;6.07;;;23.40;99.90;;;;;;5070629;28;20033;-57
2022/06/05 09:42:45;;;;;;;7.82;6.07;;;23.30;99.90;;;;;;5071885;28;20487;-56
2022/06/05 09:45:29;;;;;;;7.95;6.40;;;23.30;99.90;;;;;;5071134;28;20120;-56
2022/06/05 09:48:06;;;;;;;6.15;5.28;;;23.20;99.90;;;;;;5071781;28;20460;-56
2022/06/05 09:50:32;;;;;;;7.47;6.28;;;23.40;99.90;;;;;;5070978;28;20452;-57
2022/06/05 09:52:58;;;;;;;6.03;5.53;;;23.40;99.90;;;;;;5069718;28;20040;-57
2022/06/05 09:55:46;;;;;;;11.68;8.05;;;23.50;99.90;;;;;;5068646;28;20501;-57
2022/06/05 09:58:49;;;;;;;7.75;7.05;;;23.40;99.90;;;;;;5071484;28;20072;-57
2022/06/05 10:01:30;;;;;;;8.77;5.47;;;23.40;99.90;;;;;;5071153;28;20048;-58
2022/06/05 10:04:03;;;;;;;5.78;5.25;;;23.40;99.90;;;;;;5071437;28;20040;-57
2022/06/05 10:06:40;;;;;;;5.80;5.25;;;23.40;99.90;;;;;;5072194;28;20041;-56
2022/06/05 10:09:19;;;;;;;5.32;4.82;;;23.30;99.90;;;;;;5067100;28;20467;-56
2022/06/05 10:12:13;;;;;;;6.35;5.75;;;23.40;99.90;;;;;;5071580;28;20040;-55
2022/06/05 10:15:10;;;;;;;6.93;6.10;;;23.50;99.90;;;;;;5071451;28;20456;-55
2022/06/05 10:18:17;;;;;;;6.30;5.80;;;23.40;99.90;;;;;;5067890;28;20106;-53
2022/06/05 10:20:50;;;;;;;7.10;6.40;;;23.40;99.90;;;;;;5028810;28;20144;-55
2022/06/05 10:23:25;;;;;;;6.25;5.65;;;23.50;99.90;;;;;;5027524;28;20053;-56
2022/06/05 10:26:06;;;;;;;7.10;6.40;;;23.70;99.90;;;;;;5029283;28;20116;-54
2022/06/05 10:28:38;;;;;;;6.90;6.30;;;23.60;99.90;;;;;;5028932;28;20119;-56
2022/06/05 10:31:07;;;;;;;6.82;6.13;;;23.60;99.90;;;;;;5028986;28;20144;-55
2022/06/05 10:33:39;;;;;;;8.05;5.82;;;23.70;99.90;;;;;;5029130;28;20049;-56
2022/06/05 10:36:16;;;;;;;7.07;6.38;;;23.70;99.90;;;;;;5029256;28;20196;-54
2022/06/05 10:38:42;;;;;;;;;;;23.50;99.90;;;;;;5025028;28;20041;-57
2022/06/05 10:41:24;;;;;;;6.63;6.05;;;23.60;99.90;;;;;;5028528;28;20263;-56
2022/06/05 10:44:17;;;;;;;6.72;6.07;;;23.60;99.90;;;;;;5028278;28;20112;-56
2022/06/05 10:46:54;;;;;;;6.93;6.25;;;23.60;99.90;;;;;;5027520;28;20053;-56
2022/06/05 10:49:57;;;;;;;7.53;6.35;;;23.70;99.90;;;;;;5028479;28;20175;-56
2022/06/05 10:52:28;;;;;;;6.95;6.25;;;23.70;99.90;;;;;;5027776;28;20072;-56
2022/06/05 10:55:13;;;;;;;6.65;6.03;;;23.50;99.90;;;;;;5052658;28;20052;-53
2022/06/05 10:57:45;;;;;;;8.00;6.80;;;23.40;99.90;;;;;;5071287;28;20040;-56
2022/06/05 11:00:17;;;;;;;9.68;6.50;;;23.30;99.90;;;;;;5071198;28;20403;-55
2022/06/05 11:02:58;;;;;;;8.13;6.57;;;23.30;99.90;;;;;;5070227;28;20246;-56
2022/06/05 11:05:52;;;;;;;6.53;5.97;;;23.30;99.90;;;;;;5070559;28;20040;-55
2022/06/05 11:08:55;;;;;;;7.43;6.72;;;23.40;99.90;;;;;;5068792;28;20357;-56
2022/06/05 11:14:48;;;;;;;7.63;6.93;;;23.00;99.90;;;;;;5048390;28;20087;-54
2022/06/05 11:17:32;;;;;;;7.13;6.53;;;23.00;99.90;;;;;;5047898;28;20080;-56
2022/06/05 11:20:21;;;;;;;7.03;6.43;;;23.00;99.90;;;;;;5047976;28;20051;-54
2022/06/05 11:22:59;;;;;;;7.13;6.53;;;22.90;99.90;;;;;;5046975;28;20077;-55
2022/06/05 11:25:39;;;;;;;6.97;6.30;;;23.00;99.90;;;;;;5048333;28;20140;-54
2022/06/05 11:28:42;;;;;;;7.05;6.47;;;23.00;99.90;;;;;;5048595;28;20049;-54
2022/06/05 11:31:08;;;;;;;7.40;6.70;;;23.00;99.90;;;;;;5047751;28;20122;-55
2022/06/05 11:33:43;;;;;;;6.70;6.10;;;23.00;99.90;;;;;;5048202;28;20048;-54
2022/06/05 11:36:43;;;;;;;6.60;6.07;;;23.10;99.90;;;;;;5048477;28;20485;-53
2022/06/05 11:39:37;;;;;;;6.65;6.05;;;23.30;99.90;;;;;;5026575;28;20049;-55
2022/06/05 11:42:46;;;;;;;6.28;5.82;;;23.30;99.90;;;;;;5048411;28;20476;-54
2022/06/05 11:45:14;;;;;;;6.68;6.07;;;23.20;99.90;;;;;;4988894;28;20050;-56
2022/06/05 11:48:02;;;;;;;7.82;5.65;;;23.20;99.90;;;;;;4996734;28;20050;-56
2022/06/05 11:50:57;;;;;;;6.32;5.82;;;23.20;99.90;;;;;;5011936;28;20112;-55
2022/06/05 11:53:50;;;;;;;6.30;5.78;;;23.20;99.90;;;;;;5011493;28;20232;-56
2022/06/05 11:56:30;;;;;;;6.25;5.65;;;23.10;99.90;;;;;;5012493;28;20128;-56
2022/06/05 11:59:20;;;;;;;6.03;5.57;;;23.10;99.90;;;;;;5012435;28;20054;-56
2022/06/05 12:01:56;;;;;;;6.25;5.75;;;23.20;99.90;;;;;;4992793;28;20046;-55
2022/06/05 12:04:45;;;;;;;6.57;5.20;;;23.30;99.90;;;;;;5001995;28;20053;-54
2022/06/05 12:07:13;;;;;;;6.38;5.72;;;23.20;99.90;;;;;;5012466;28;20046;-56
2022/06/05 12:09:53;;;;;;;7.05;5.80;;;23.30;99.90;;;;;;5012303;28;20523;-56
2022/06/05 12:12:28;;;;;;;5.30;4.90;;;23.30;99.90;;;;;;5012241;28;20042;-57
2022/06/05 12:15:29;;;;;;;6.13;5.63;;;23.20;99.90;;;;;;5018278;28;20045;-56
2022/06/05 12:18:07;;;;;;;8.30;5.90;;;23.30;99.90;;;;;;5074038;28;20080;-57
2022/06/05 12:20:54;;;;;;;7.65;6.85;;;23.30;99.90;;;;;;5074047;28;20060;-56
2022/06/05 12:23:34;;;;;;;8.93;5.63;;;23.40;99.90;;;;;;5074085;28;20039;-55
2022/06/05 12:26:12;;;;;;;6.18;5.57;;;23.30;99.90;;;;;;5074226;28;20044;-56
2022/06/05 12:28:46;;;;;;;7.70;5.68;;;23.40;99.90;;;;;;5074045;28;20119;-55
2022/06/05 12:31:20;;;;;;;6.07;5.22;;;23.40;99.90;;;;;;5074189;28;20051;-56
2022/06/05 12:34:04;;;;;;;5.95;5.35;;;23.50;99.90;;;;;;5073134;28;20123;-56
2022/06/05 12:36:41;;;;;;;5.53;5.13;;;23.60;99.90;;;;;;5071499;28;20115;-55
2022/06/05 12:39:28;;;;;;;5.60;5.20;;;23.70;99.90;;;;;;5072708;28;20107;-57
2022/06/05 12:42:03;;;;;;;5.82;5.30;;;23.80;99.90;;;;;;5065992;28;20048;-56
2022/06/05 12:44:34;;;;;;;5.55;5.05;;;24.00;99.90;;;;;;5072969;28;20044;-55
2022/06/05 12:47:21;;;;;;;5.85;5.40;;;24.20;99.90;;;;;;5073908;28;20080;-54
2022/06/05 12:49:56;;;;;;;6.40;5.57;;;24.10;99.90;;;;;;5073535;28;20052;-53
2022/06/05 12:52:39;;;;;;;5.90;5.40;;;24.20;99.90;;;;;;5070100;28;20045;-56
2022/06/05 12:55:12;;;;;;;5.43;5.03;;;24.30;99.90;;;;;;5073255;28;20111;-55
2022/06/05 12:57:52;;;;;;;5.38;4.97;;;24.30;99.90;;;;;;5072926;28;20083;-55
2022/06/05 13:00:21;;;;;;;5.43;5.00;;;24.30;99.90;;;;;;5072619;28;20052;-56
2022/06/05 13:03:11;;;;;;;5.18;4.78;;;24.30;99.90;;;;;;5073217;28;20091;-55
2022/06/05 13:05:49;;;;;;;6.82;5.22;;;24.30;99.90;;;;;;5061763;28;20182;-55
2022/06/05 13:08:40;;;;;;;6.40;5.80;;;24.20;99.90;;;;;;5064560;28;20517;-55
2022/06/05 13:11:27;;;;;;;5.88;5.25;;;24.20;99.90;;;;;;5070308;28;20052;-55
2022/06/05 13:14:04;;;;;;;5.85;5.38;;;24.40;99.90;;;;;;5073301;28;20109;-54
2022/06/05 13:16:51;;;;;;;5.97;5.35;;;24.50;99.90;;;;;;5072488;28;20047;-54
2022/06/05 13:19:28;;;;;;;10.82;5.47;;;24.60;99.90;;;;;;5073308;28;20037;-55
2022/06/05 13:22:06;;;;;;;5.93;5.30;;;24.60;99.90;;;;;;5069749;28;20044;-56
2022/06/05 13:25:05;;;;;;;5.97;5.40;;;24.70;99.90;;;;;;5071699;28;20048;-54
2022/06/05 13:28:02;;;;;;;5.75;5.20;;;24.80;99.90;;;;;;5056240;28;20421;-54
2022/06/05 13:30:31;;;;;;;5.63;5.13;;;24.90;99.90;;;;;;5072999;28;20402;-54